sensor_id;sensor_type;location;lat;lon;timestamp;P1;durP1;ratioP1;P2;durP2;ratioP2
26963;SDS011;14521;48.148;-1.656;2023-11-18T00:00:06;1.00;;;0.45;;
26963;SDS011;14521;48.148;-1.656;2023-11-18T00:03:34;1.85;;;0.70;;
26963;SDS011;14521;48.148;-1.656;2023-11-18T00:06:57;0.88;;;0.50;;
26963;SDS011;14521;48.148;-1.656;2023-11-18T00:10:21;2.38;;;0.50;;
26963;SDS011;14521;48.148;-1.656;2023-11-18T00:13:43;1.05;;;0.45;;
26963;SDS011;14521;48.148;-1.656;2023-11-18T00:17:06;1.83;;;0.47;;
26963;SDS011;14521;48.148;-1.656;2023-11-18T00:20:28;1.30;;;0.65;;
26963;SDS011;14521;48.148;-1.656;2023-11-18T00:23:53;0.90;;;0.80;;
26963;SDS011;14521;48.148;-1.656;2023-11-18T00:27:17;0.65;;;0.60;;
26963;SDS011;14521;48.148;-1.656;2023-11-18T00:30:39;0.60;;;0.40;;
26963;SDS011;14521;48.148;-1.656;2023-11-18T00:34:02;0.75;;;0.70;;
26963;SDS011;14521;48.148;-1.656;2023-11-18T00:37:25;1.30;;;0.63;;
26963;SDS011;14521;48.148;-1.656;2023-11-18T00:40:47;3.17;;;0.55;;
26963;SDS011;14521;48.148;-1.656;2023-11-18T00:44:09;0.88;;;0.50;;
26963;SDS011;14521;48.148;-1.656;2023-11-18T00:47:32;0.93;;;0.80;;
26963;SDS011;14521;48.148;-1.656;2023-11-18T00:50:55;1.00;;;0.70;;
26963;SDS011;14521;48.148;-1.656;2023-11-18T00:54:17;0.57;;;0.40;;
26963;SDS011;14521;48.148;-1.656;2023-11-18T00:57:40;1.35;;;0.47;;
26963;SDS011;14521;48.148;-1.656;2023-11-18T01:01:02;2.85;;;0.68;;
26963;SDS011;14521;48.148;-1.656;2023-11-18T01:04:25;1.40;;;0.65;;
26963;SDS011;14521;48.148;-1.656;2023-11-18T01:07:47;0.60;;;0.60;;
26963;SDS011;14521;48.148;-1.656;2023-11-18T01:11:10;0.50;;;0.50;;
26963;SDS011;14521;48.148;-1.656;2023-11-18T01:14:32;1.48;;;0.60;;
26963;SDS011;14521;48.148;-1.656;2023-11-18T01:17:56;0.70;;;0.50;;
26963;SDS011;14521;48.148;-1.656;2023-11-18T01:21:19;1.85;;;0.70;;
26963;SDS011;14521;48.148;-1.656;2023-11-18T01:24:41;0.77;;;0.50;;
26963;SDS011;14521;48.148;-1.656;2023-11-18T01:28:03;0.93;;;0.55;;
26963;SDS011;14521;48.148;-1.656;2023-11-18T01:31:26;0.40;;;0.40;;
26963;SDS011;14521;48.148;-1.656;2023-11-18T01:34:54;0.50;;;0.50;;
26963;SDS011;14521;48.148;-1.656;2023-11-18T01:38:17;0.75;;;0.57;;
26963;SDS011;14521;48.148;-1.656;2023-11-18T01:41:42;0.73;;;0.60;;
26963;SDS011;14521;48.148;-1.656;2023-11-18T01:45:04;0.52;;;0.30;;
26963;SDS011;14521;48.148;-1.656;2023-11-18T01:48:32;0.65;;;0.40;;
26963;SDS011;14521;48.148;-1.656;2023-11-18T01:51:55;1.13;;;0.50;;
26963;SDS011;14521;48.148;-1.656;2023-11-18T01:55:18;3.60;;;0.63;;
26963;SDS011;14521;48.148;-1.656;2023-11-18T01:58:40;0.63;;;0.50;;
26963;SDS011;14521;48.148;-1.656;2023-11-18T02:02:03;1.52;;;0.40;;
26963;SDS011;14521;48.148;-1.656;2023-11-18T02:05:26;0.50;;;0.50;;
26963;SDS011;14521;48.148;-1.656;2023-11-18T02:08:49;0.75;;;0.40;;
26963;SDS011;14521;48.148;-1.656;2023-11-18T02:12:16;1.45;;;0.75;;
26963;SDS011;14521;48.148;-1.656;2023-11-18T02:15:42;0.40;;;0.30;;
26963;SDS011;14521;48.148;-1.656;2023-11-18T02:19:08;1.33;;;0.40;;
26963;SDS011;14521;48.148;-1.656;2023-11-18T02:22:38;1.15;;;0.65;;
26963;SDS011;14521;48.148;-1.656;2023-11-18T02:26:02;0.52;;;0.30;;
26963;SDS011;14521;48.148;-1.656;2023-11-18T02:29:25;1.05;;;0.50;;
26963;SDS011;14521;48.148;-1.656;2023-11-18T02:32:59;1.85;;;0.40;;
26963;SDS011;14521;48.148;-1.656;2023-11-18T02:36:32;0.40;;;0.38;;
26963;SDS011;14521;48.148;-1.656;2023-11-18T02:40:03;0.60;;;0.45;;
26963;SDS011;14521;48.148;-1.656;2023-11-18T02:43:30;1.52;;;0.40;;
26963;SDS011;14521;48.148;-1.656;2023-11-18T02:46:52;1.92;;;0.60;;
26963;SDS011;14521;48.148;-1.656;2023-11-18T02:50:15;1.75;;;0.30;;
26963;SDS011;14521;48.148;-1.656;2023-11-18T02:53:38;0.28;;;0.20;;
26963;SDS011;14521;48.148;-1.656;2023-11-18T02:57:03;1.52;;;0.55;;
26963;SDS011;14521;48.148;-1.656;2023-11-18T03:00:25;0.70;;;0.52;;
26963;SDS011;14521;48.148;-1.656;2023-11-18T03:03:47;1.10;;;0.50;;
26963;SDS011;14521;48.148;-1.656;2023-11-18T03:07:09;3.05;;;0.50;;
26963;SDS011;14521;48.148;-1.656;2023-11-18T03:10:32;1.10;;;0.30;;
26963;SDS011;14521;48.148;-1.656;2023-11-18T03:13:57;0.90;;;0.40;;
26963;SDS011;14521;48.148;-1.656;2023-11-18T03:17:19;0.60;;;0.40;;
26963;SDS011;14521;48.148;-1.656;2023-11-18T03:20:42;0.40;;;0.30;;
26963;SDS011;14521;48.148;-1.656;2023-11-18T03:24:04;0.98;;;0.30;;
26963;SDS011;14521;48.148;-1.656;2023-11-18T03:27:27;1.30;;;0.45;;
26963;SDS011;14521;48.148;-1.656;2023-11-18T03:30:49;1.25;;;0.47;;
26963;SDS011;14521;48.148;-1.656;2023-11-18T03:34:11;0.40;;;0.30;;
26963;SDS011;14521;48.148;-1.656;2023-11-18T03:37:34;0.30;;;0.30;;
26963;SDS011;14521;48.148;-1.656;2023-11-18T03:40:57;2.17;;;0.30;;
26963;SDS011;14521;48.148;-1.656;2023-11-18T03:44:20;0.60;;;0.40;;
26963;SDS011;14521;48.148;-1.656;2023-11-18T03:47:43;0.25;;;0.25;;
26963;SDS011;14521;48.148;-1.656;2023-11-18T03:51:06;0.82;;;0.22;;
26963;SDS011;14521;48.148;-1.656;2023-11-18T03:54:29;0.52;;;0.20;;
26963;SDS011;14521;48.148;-1.656;2023-11-18T03:57:51;1.50;;;0.65;;
26963;SDS011;14521;48.148;-1.656;2023-11-18T04:01:23;0.68;;;0.38;;
26963;SDS011;14521;48.148;-1.656;2023-11-18T04:04:49;0.63;;;0.30;;
26963;SDS011;14521;48.148;-1.656;2023-11-18T04:08:11;1.02;;;0.20;;
26963;SDS011;14521;48.148;-1.656;2023-11-18T04:11:34;0.50;;;0.22;;
26963;SDS011;14521;48.148;-1.656;2023-11-18T04:14:57;0.73;;;0.25;;
26963;SDS011;14521;48.148;-1.656;2023-11-18T04:18:19;0.63;;;0.40;;
26963;SDS011;14521;48.148;-1.656;2023-11-18T04:21:43;0.80;;;0.30;;
26963;SDS011;14521;48.148;-1.656;2023-11-18T04:25:10;1.35;;;0.38;;
26963;SDS011;14521;48.148;-1.656;2023-11-18T04:28:33;0.45;;;0.22;;
26963;SDS011;14521;48.148;-1.656;2023-11-18T04:31:57;3.00;;;0.40;;
26963;SDS011;14521;48.148;-1.656;2023-11-18T04:35:21;0.77;;;0.25;;
26963;SDS011;14521;48.148;-1.656;2023-11-18T04:38:44;1.58;;;0.40;;
26963;SDS011;14521;48.148;-1.656;2023-11-18T04:42:06;5.15;;;0.32;;
26963;SDS011;14521;48.148;-1.656;2023-11-18T04:45:28;0.55;;;0.20;;
26963;SDS011;14521;48.148;-1.656;2023-11-18T04:48:52;1.02;;;0.30;;
26963;SDS011;14521;48.148;-1.656;2023-11-18T04:52:16;0.80;;;0.40;;
26963;SDS011;14521;48.148;-1.656;2023-11-18T04:55:39;1.05;;;0.43;;
26963;SDS011;14521;48.148;-1.656;2023-11-18T04:59:04;3.20;;;1.50;;
26963;SDS011;14521;48.148;-1.656;2023-11-18T05:02:27;1.58;;;0.30;;
26963;SDS011;14521;48.148;-1.656;2023-11-18T05:05:50;1.33;;;0.40;;
26963;SDS011;14521;48.148;-1.656;2023-11-18T05:09:15;0.85;;;0.32;;
26963;SDS011;14521;48.148;-1.656;2023-11-18T05:16:02;2.63;;;0.38;;
26963;SDS011;14521;48.148;-1.656;2023-11-18T05:19:25;1.80;;;0.40;;
26963;SDS011;14521;48.148;-1.656;2023-11-18T05:22:47;0.68;;;0.47;;
26963;SDS011;14521;48.148;-1.656;2023-11-18T05:26:10;0.60;;;0.20;;
26963;SDS011;14521;48.148;-1.656;2023-11-18T05:29:32;0.90;;;0.30;;
26963;SDS011;14521;48.148;-1.656;2023-11-18T05:32:55;2.65;;;0.30;;
26963;SDS011;14521;48.148;-1.656;2023-11-18T05:36:18;0.47;;;0.47;;
26963;SDS011;14521;48.148;-1.656;2023-11-18T05:39:48;2.83;;;0.45;;
26963;SDS011;14521;48.148;-1.656;2023-11-18T05:43:15;2.67;;;0.40;;
26963;SDS011;14521;48.148;-1.656;2023-11-18T05:46:40;0.95;;;0.30;;
26963;SDS011;14521;48.148;-1.656;2023-11-18T05:50:03;3.00;;;0.50;;
26963;SDS011;14521;48.148;-1.656;2023-11-18T05:53:27;1.27;;;0.37;;
26963;SDS011;14521;48.148;-1.656;2023-11-18T05:56:55;0.38;;;0.35;;
26963;SDS011;14521;48.148;-1.656;2023-11-18T06:00:21;1.73;;;0.30;;
26963;SDS011;14521;48.148;-1.656;2023-11-18T06:07:18;1.88;;;0.20;;
26963;SDS011;14521;48.148;-1.656;2023-11-18T06:10:41;0.30;;;0.20;;
26963;SDS011;14521;48.148;-1.656;2023-11-18T06:14:06;0.85;;;0.30;;
26963;SDS011;14521;48.148;-1.656;2023-11-18T06:17:30;0.47;;;0.20;;
26963;SDS011;14521;48.148;-1.656;2023-11-18T06:20:53;1.20;;;0.17;;
26963;SDS011;14521;48.148;-1.656;2023-11-18T06:24:15;1.17;;;0.30;;
26963;SDS011;14521;48.148;-1.656;2023-11-18T06:27:38;0.70;;;0.32;;
26963;SDS011;14521;48.148;-1.656;2023-11-18T06:31:01;0.30;;;0.28;;
26963;SDS011;14521;48.148;-1.656;2023-11-18T06:34:23;2.65;;;0.30;;
26963;SDS011;14521;48.148;-1.656;2023-11-18T06:37:45;1.58;;;0.30;;
26963;SDS011;14521;48.148;-1.656;2023-11-18T06:41:09;1.38;;;0.25;;
26963;SDS011;14521;48.148;-1.656;2023-11-18T06:44:33;1.73;;;0.30;;
26963;SDS011;14521;48.148;-1.656;2023-11-18T06:47:56;2.65;;;0.25;;
26963;SDS011;14521;48.148;-1.656;2023-11-18T06:51:24;1.98;;;0.28;;
26963;SDS011;14521;48.148;-1.656;2023-11-18T06:54:49;1.50;;;0.30;;
26963;SDS011;14521;48.148;-1.656;2023-11-18T06:58:13;0.32;;;0.20;;
26963;SDS011;14521;48.148;-1.656;2023-11-18T07:01:35;5.93;;;0.50;;
26963;SDS011;14521;48.148;-1.656;2023-11-18T07:04:58;6.53;;;0.40;;
26963;SDS011;14521;48.148;-1.656;2023-11-18T07:08:20;0.70;;;0.50;;
26963;SDS011;14521;48.148;-1.656;2023-11-18T07:11:43;1.08;;;0.50;;
26963;SDS011;14521;48.148;-1.656;2023-11-18T07:15:06;3.17;;;0.38;;
26963;SDS011;14521;48.148;-1.656;2023-11-18T07:18:32;4.40;;;0.50;;
26963;SDS011;14521;48.148;-1.656;2023-11-18T07:21:56;1.42;;;0.25;;
26963;SDS011;14521;48.148;-1.656;2023-11-18T07:25:18;2.72;;;0.20;;
26963;SDS011;14521;48.148;-1.656;2023-11-18T07:28:40;1.67;;;0.25;;
26963;SDS011;14521;48.148;-1.656;2023-11-18T07:32:03;2.65;;;0.40;;
26963;SDS011;14521;48.148;-1.656;2023-11-18T07:35:27;1.48;;;0.30;;
26963;SDS011;14521;48.148;-1.656;2023-11-18T07:38:51;2.13;;;0.50;;
26963;SDS011;14521;48.148;-1.656;2023-11-18T07:42:13;6.97;;;0.40;;
26963;SDS011;14521;48.148;-1.656;2023-11-18T07:45:37;2.67;;;0.40;;
26963;SDS011;14521;48.148;-1.656;2023-11-18T07:49:01;2.50;;;0.43;;
26963;SDS011;14521;48.148;-1.656;2023-11-18T07:52:23;1.20;;;0.30;;
26963;SDS011;14521;48.148;-1.656;2023-11-18T07:55:46;2.17;;;0.20;;
26963;SDS011;14521;48.148;-1.656;2023-11-18T07:59:09;2.90;;;0.45;;
26963;SDS011;14521;48.148;-1.656;2023-11-18T08:02:31;0.80;;;0.35;;
26963;SDS011;14521;48.148;-1.656;2023-11-18T08:05:54;7.55;;;0.60;;
26963;SDS011;14521;48.148;-1.656;2023-11-18T08:09:16;5.63;;;0.50;;
26963;SDS011;14521;48.148;-1.656;2023-11-18T08:12:45;5.00;;;0.52;;
26963;SDS011;14521;48.148;-1.656;2023-11-18T08:16:08;2.10;;;0.47;;
26963;SDS011;14521;48.148;-1.656;2023-11-18T08:19:31;5.78;;;0.40;;
26963;SDS011;14521;48.148;-1.656;2023-11-18T08:22:55;2.92;;;0.40;;
26963;SDS011;14521;48.148;-1.656;2023-11-18T08:26:18;0.70;;;0.30;;
26963;SDS011;14521;48.148;-1.656;2023-11-18T08:29:41;1.10;;;0.40;;
26963;SDS011;14521;48.148;-1.656;2023-11-18T08:33:04;0.25;;;0.20;;
26963;SDS011;14521;48.148;-1.656;2023-11-18T08:36:30;2.15;;;0.30;;
26963;SDS011;14521;48.148;-1.656;2023-11-18T08:39:55;0.90;;;0.28;;
26963;SDS011;14521;48.148;-1.656;2023-11-18T08:43:36;2.10;;;0.28;;
26963;SDS011;14521;48.148;-1.656;2023-11-18T08:46:58;1.20;;;0.20;;
26963;SDS011;14521;48.148;-1.656;2023-11-18T08:50:21;0.65;;;0.40;;
26963;SDS011;14521;48.148;-1.656;2023-11-18T08:53:47;1.70;;;0.30;;
26963;SDS011;14521;48.148;-1.656;2023-11-18T08:57:09;0.57;;;0.25;;
26963;SDS011;14521;48.148;-1.656;2023-11-18T09:00:53;1.20;;;0.28;;
26963;SDS011;14521;48.148;-1.656;2023-11-18T09:07:41;1.17;;;0.30;;
26963;SDS011;14521;48.148;-1.656;2023-11-18T09:11:05;0.70;;;0.30;;
26963;SDS011;14521;48.148;-1.656;2023-11-18T09:14:29;1.05;;;0.30;;
26963;SDS011;14521;48.148;-1.656;2023-11-18T09:17:52;0.82;;;0.32;;
26963;SDS011;14521;48.148;-1.656;2023-11-18T09:21:15;0.22;;;0.20;;
26963;SDS011;14521;48.148;-1.656;2023-11-18T09:24:41;1.05;;;0.30;;
26963;SDS011;14521;48.148;-1.656;2023-11-18T09:28:03;2.10;;;0.30;;
26963;SDS011;14521;48.148;-1.656;2023-11-18T09:31:26;0.52;;;0.40;;
26963;SDS011;14521;48.148;-1.656;2023-11-18T09:34:49;0.95;;;0.20;;
26963;SDS011;14521;48.148;-1.656;2023-11-18T09:38:11;2.55;;;0.40;;
26963;SDS011;14521;48.148;-1.656;2023-11-18T09:41:34;1.05;;;0.30;;
26963;SDS011;14521;48.148;-1.656;2023-11-18T09:44:57;1.63;;;0.32;;
26963;SDS011;14521;48.148;-1.656;2023-11-18T09:48:23;0.85;;;0.30;;
26963;SDS011;14521;48.148;-1.656;2023-11-18T09:51:47;2.40;;;0.60;;
26963;SDS011;14521;48.148;-1.656;2023-11-18T09:55:11;0.32;;;0.20;;
26963;SDS011;14521;48.148;-1.656;2023-11-18T09:58:45;1.00;;;0.40;;
26963;SDS011;14521;48.148;-1.656;2023-11-18T10:02:14;0.80;;;0.30;;
26963;SDS011;14521;48.148;-1.656;2023-11-18T10:05:40;1.70;;;0.30;;
26963;SDS011;14521;48.148;-1.656;2023-11-18T10:09:03;1.10;;;0.57;;
26963;SDS011;14521;48.148;-1.656;2023-11-18T10:12:37;2.05;;;0.47;;
26963;SDS011;14521;48.148;-1.656;2023-11-18T10:16:02;1.45;;;0.50;;
26963;SDS011;14521;48.148;-1.656;2023-11-18T10:19:26;1.88;;;0.63;;
26963;SDS011;14521;48.148;-1.656;2023-11-18T10:23:20;0.90;;;0.40;;
26963;SDS011;14521;48.148;-1.656;2023-11-18T10:30:19;2.13;;;0.50;;
26963;SDS011;14521;48.148;-1.656;2023-11-18T10:33:43;3.53;;;0.57;;
26963;SDS011;14521;48.148;-1.656;2023-11-18T10:37:06;1.65;;;0.43;;
26963;SDS011;14521;48.148;-1.656;2023-11-18T10:40:28;3.53;;;0.77;;
26963;SDS011;14521;48.148;-1.656;2023-11-18T10:44:04;5.78;;;0.60;;
26963;SDS011;14521;48.148;-1.656;2023-11-18T10:47:32;1.08;;;0.68;;
26963;SDS011;14521;48.148;-1.656;2023-11-18T10:50:57;1.58;;;0.70;;
26963;SDS011;14521;48.148;-1.656;2023-11-18T10:54:20;3.70;;;0.60;;
26963;SDS011;14521;48.148;-1.656;2023-11-18T10:57:43;2.10;;;1.13;;
26963;SDS011;14521;48.148;-1.656;2023-11-18T11:01:05;0.90;;;0.50;;
26963;SDS011;14521;48.148;-1.656;2023-11-18T11:04:42;2.90;;;0.80;;
26963;SDS011;14521;48.148;-1.656;2023-11-18T11:08:06;2.75;;;0.57;;
26963;SDS011;14521;48.148;-1.656;2023-11-18T11:11:32;6.15;;;0.80;;
26963;SDS011;14521;48.148;-1.656;2023-11-18T11:15:02;2.03;;;0.80;;
26963;SDS011;14521;48.148;-1.656;2023-11-18T11:18:35;2.58;;;0.43;;
26963;SDS011;14521;48.148;-1.656;2023-11-18T11:22:07;3.63;;;0.85;;
26963;SDS011;14521;48.148;-1.656;2023-11-18T11:29:40;2.08;;;1.00;;
26963;SDS011;14521;48.148;-1.656;2023-11-18T11:33:25;4.10;;;0.70;;
26963;SDS011;14521;48.148;-1.656;2023-11-18T11:36:51;6.13;;;0.93;;
26963;SDS011;14521;48.148;-1.656;2023-11-18T11:40:16;8.50;;;0.70;;
26963;SDS011;14521;48.148;-1.656;2023-11-18T11:43:44;3.83;;;0.90;;
26963;SDS011;14521;48.148;-1.656;2023-11-18T11:47:09;3.35;;;1.10;;
26963;SDS011;14521;48.148;-1.656;2023-11-18T11:50:37;5.00;;;1.10;;
26963;SDS011;14521;48.148;-1.656;2023-11-18T11:54:17;4.43;;;1.00;;
26963;SDS011;14521;48.148;-1.656;2023-11-18T11:57:51;3.20;;;0.75;;
26963;SDS011;14521;48.148;-1.656;2023-11-18T12:01:26;4.35;;;0.90;;
26963;SDS011;14521;48.148;-1.656;2023-11-18T12:04:56;2.47;;;0.80;;
26963;SDS011;14521;48.148;-1.656;2023-11-18T12:08:21;1.52;;;0.80;;
26963;SDS011;14521;48.148;-1.656;2023-11-18T12:11:44;2.13;;;0.73;;
26963;SDS011;14521;48.148;-1.656;2023-11-18T12:15:10;2.97;;;0.80;;
26963;SDS011;14521;48.148;-1.656;2023-11-18T12:18:40;3.80;;;0.70;;
26963;SDS011;14521;48.148;-1.656;2023-11-18T12:22:05;2.88;;;0.90;;
26963;SDS011;14521;48.148;-1.656;2023-11-18T12:25:34;2.28;;;0.73;;
26963;SDS011;14521;48.148;-1.656;2023-11-18T12:28:58;2.15;;;0.50;;
26963;SDS011;14521;48.148;-1.656;2023-11-18T12:32:57;5.63;;;0.98;;
26963;SDS011;14521;48.148;-1.656;2023-11-18T12:36:34;3.15;;;0.90;;
26963;SDS011;14521;48.148;-1.656;2023-11-18T12:40:36;2.08;;;0.82;;
26963;SDS011;14521;48.148;-1.656;2023-11-18T12:47:41;2.50;;;0.88;;
26963;SDS011;14521;48.148;-1.656;2023-11-18T12:51:06;2.05;;;0.85;;
26963;SDS011;14521;48.148;-1.656;2023-11-18T12:54:32;1.38;;;0.98;;
26963;SDS011;14521;48.148;-1.656;2023-11-18T12:57:55;3.28;;;1.15;;
26963;SDS011;14521;48.148;-1.656;2023-11-18T13:01:21;2.40;;;0.88;;
26963;SDS011;14521;48.148;-1.656;2023-11-18T13:04:44;9.32;;;0.93;;
26963;SDS011;14521;48.148;-1.656;2023-11-18T13:08:09;5.55;;;0.95;;
26963;SDS011;14521;48.148;-1.656;2023-11-18T13:11:31;2.42;;;0.80;;
26963;SDS011;14521;48.148;-1.656;2023-11-18T13:14:55;1.48;;;0.70;;
26963;SDS011;14521;48.148;-1.656;2023-11-18T13:18:18;2.22;;;1.00;;
26963;SDS011;14521;48.148;-1.656;2023-11-18T13:21:41;5.05;;;1.00;;
26963;SDS011;14521;48.148;-1.656;2023-11-18T13:25:04;3.42;;;1.15;;
26963;SDS011;14521;48.148;-1.656;2023-11-18T13:28:27;3.13;;;1.20;;
26963;SDS011;14521;48.148;-1.656;2023-11-18T13:31:50;2.17;;;0.63;;
26963;SDS011;14521;48.148;-1.656;2023-11-18T13:35:13;2.70;;;0.73;;
26963;SDS011;14521;48.148;-1.656;2023-11-18T13:38:40;11.60;;;1.15;;
26963;SDS011;14521;48.148;-1.656;2023-11-18T13:45:50;5.80;;;1.02;;
26963;SDS011;14521;48.148;-1.656;2023-11-18T13:49:14;3.58;;;0.95;;
26963;SDS011;14521;48.148;-1.656;2023-11-18T13:52:37;1.27;;;0.73;;
26963;SDS011;14521;48.148;-1.656;2023-11-18T13:59:26;3.55;;;1.00;;
26963;SDS011;14521;48.148;-1.656;2023-11-18T14:02:49;2.75;;;0.75;;
26963;SDS011;14521;48.148;-1.656;2023-11-18T14:06:13;3.17;;;0.83;;
26963;SDS011;14521;48.148;-1.656;2023-11-18T14:09:38;2.13;;;0.70;;
26963;SDS011;14521;48.148;-1.656;2023-11-18T14:13:04;3.72;;;1.02;;
26963;SDS011;14521;48.148;-1.656;2023-11-18T14:16:38;2.03;;;1.25;;
26963;SDS011;14521;48.148;-1.656;2023-11-18T14:20:02;1.40;;;0.80;;
26963;SDS011;14521;48.148;-1.656;2023-11-18T14:23:25;7.93;;;1.10;;
26963;SDS011;14521;48.148;-1.656;2023-11-18T14:26:47;1.00;;;0.80;;
26963;SDS011;14521;48.148;-1.656;2023-11-18T14:30:09;1.80;;;0.80;;
26963;SDS011;14521;48.148;-1.656;2023-11-18T14:33:33;7.05;;;1.60;;
26963;SDS011;14521;48.148;-1.656;2023-11-18T14:36:55;3.33;;;1.00;;
26963;SDS011;14521;48.148;-1.656;2023-11-18T14:40:18;4.38;;;0.95;;
26963;SDS011;14521;48.148;-1.656;2023-11-18T14:43:41;3.90;;;1.33;;
26963;SDS011;14521;48.148;-1.656;2023-11-18T14:47:04;1.73;;;0.70;;
26963;SDS011;14521;48.148;-1.656;2023-11-18T14:50:28;8.35;;;0.80;;
26963;SDS011;14521;48.148;-1.656;2023-11-18T14:53:51;2.83;;;1.00;;
26963;SDS011;14521;48.148;-1.656;2023-11-18T14:57:15;3.00;;;0.93;;
26963;SDS011;14521;48.148;-1.656;2023-11-18T15:00:37;1.02;;;0.90;;
26963;SDS011;14521;48.148;-1.656;2023-11-18T15:04:01;3.88;;;0.80;;
26963;SDS011;14521;48.148;-1.656;2023-11-18T15:07:27;4.18;;;0.80;;
26963;SDS011;14521;48.148;-1.656;2023-11-18T15:10:50;6.05;;;1.20;;
26963;SDS011;14521;48.148;-1.656;2023-11-18T15:14:12;0.85;;;0.45;;
26963;SDS011;14521;48.148;-1.656;2023-11-18T15:17:35;2.42;;;0.80;;
26963;SDS011;14521;48.148;-1.656;2023-11-18T15:21:09;3.42;;;0.77;;
26963;SDS011;14521;48.148;-1.656;2023-11-18T15:24:36;2.05;;;0.50;;
26963;SDS011;14521;48.148;-1.656;2023-11-18T15:27:58;2.35;;;0.73;;
26963;SDS011;14521;48.148;-1.656;2023-11-18T15:31:22;2.97;;;0.80;;
26963;SDS011;14521;48.148;-1.656;2023-11-18T15:34:46;4.20;;;1.00;;
26963;SDS011;14521;48.148;-1.656;2023-11-18T15:38:08;1.58;;;0.70;;
26963;SDS011;14521;48.148;-1.656;2023-11-18T15:41:31;2.00;;;0.75;;
26963;SDS011;14521;48.148;-1.656;2023-11-18T15:44:55;2.13;;;0.63;;
26963;SDS011;14521;48.148;-1.656;2023-11-18T15:48:18;2.17;;;0.93;;
26963;SDS011;14521;48.148;-1.656;2023-11-18T15:51:42;0.93;;;0.70;;
26963;SDS011;14521;48.148;-1.656;2023-11-18T15:55:05;1.85;;;0.90;;
26963;SDS011;14521;48.148;-1.656;2023-11-18T15:58:31;10.38;;;0.80;;
26963;SDS011;14521;48.148;-1.656;2023-11-18T16:01:36;0.73;;;0.38;;
26963;SDS011;14521;48.148;-1.656;2023-11-18T16:04:59;1.58;;;0.63;;
26963;SDS011;14521;48.148;-1.656;2023-11-18T16:08:21;2.10;;;1.00;;
26963;SDS011;14521;48.148;-1.656;2023-11-18T16:11:44;1.60;;;0.63;;
26963;SDS011;14521;48.148;-1.656;2023-11-18T16:15:06;1.00;;;0.68;;
26963;SDS011;14521;48.148;-1.656;2023-11-18T16:18:30;0.52;;;0.40;;
26963;SDS011;14521;48.148;-1.656;2023-11-18T16:21:52;4.18;;;0.80;;
26963;SDS011;14521;48.148;-1.656;2023-11-18T16:25:15;1.42;;;0.70;;
26963;SDS011;14521;48.148;-1.656;2023-11-18T16:28:39;1.25;;;0.52;;
26963;SDS011;14521;48.148;-1.656;2023-11-18T16:32:02;1.10;;;0.70;;
26963;SDS011;14521;48.148;-1.656;2023-11-18T16:35:24;0.95;;;0.40;;
26963;SDS011;14521;48.148;-1.656;2023-11-18T16:38:48;1.38;;;0.73;;
26963;SDS011;14521;48.148;-1.656;2023-11-18T16:42:10;1.13;;;1.02;;
26963;SDS011;14521;48.148;-1.656;2023-11-18T16:45:32;2.45;;;0.80;;
26963;SDS011;14521;48.148;-1.656;2023-11-18T16:48:54;1.52;;;0.68;;
26963;SDS011;14521;48.148;-1.656;2023-11-18T16:52:17;0.60;;;0.50;;
26963;SDS011;14521;48.148;-1.656;2023-11-18T16:55:39;0.82;;;0.65;;
26963;SDS011;14521;48.148;-1.656;2023-11-18T16:59:01;2.05;;;0.85;;
26963;SDS011;14521;48.148;-1.656;2023-11-18T17:02:25;1.02;;;0.45;;
26963;SDS011;14521;48.148;-1.656;2023-11-18T17:05:47;1.77;;;0.50;;
26963;SDS011;14521;48.148;-1.656;2023-11-18T17:09:09;2.00;;;0.40;;
26963;SDS011;14521;48.148;-1.656;2023-11-18T17:12:33;3.05;;;0.70;;
26963;SDS011;14521;48.148;-1.656;2023-11-18T17:15:55;1.15;;;0.43;;
26963;SDS011;14521;48.148;-1.656;2023-11-18T17:19:18;1.95;;;1.40;;
26963;SDS011;14521;48.148;-1.656;2023-11-18T17:22:41;2.85;;;2.60;;
26963;SDS011;14521;48.148;-1.656;2023-11-18T17:26:06;3.30;;;3.00;;
26963;SDS011;14521;48.148;-1.656;2023-11-18T17:32:51;3.15;;;3.00;;
26963;SDS011;14521;48.148;-1.656;2023-11-18T17:36:15;3.05;;;2.88;;
26963;SDS011;14521;48.148;-1.656;2023-11-18T17:39:41;4.40;;;4.10;;
26963;SDS011;14521;48.148;-1.656;2023-11-18T17:43:04;5.18;;;4.28;;
26963;SDS011;14521;48.148;-1.656;2023-11-18T17:46:26;5.28;;;4.80;;
26963;SDS011;14521;48.148;-1.656;2023-11-18T17:49:49;6.47;;;6.07;;
26963;SDS011;14521;48.148;-1.656;2023-11-18T17:53:11;6.70;;;6.35;;
26963;SDS011;14521;48.148;-1.656;2023-11-18T17:56:33;9.13;;;7.40;;
26963;SDS011;14521;48.148;-1.656;2023-11-18T17:59:55;4.53;;;4.22;;
26963;SDS011;14521;48.148;-1.656;2023-11-18T18:03:19;8.27;;;7.78;;
26963;SDS011;14521;48.148;-1.656;2023-11-18T18:06:42;12.65;;;6.97;;
26963;SDS011;14521;48.148;-1.656;2023-11-18T18:10:05;9.35;;;8.65;;
26963;SDS011;14521;48.148;-1.656;2023-11-18T18:13:29;8.25;;;7.75;;
26963;SDS011;14521;48.148;-1.656;2023-11-18T18:16:53;7.85;;;7.35;;
26963;SDS011;14521;48.148;-1.656;2023-11-18T18:20:15;8.27;;;7.68;;
26963;SDS011;14521;48.148;-1.656;2023-11-18T18:23:41;6.70;;;6.20;;
26963;SDS011;14521;48.148;-1.656;2023-11-18T18:27:04;7.03;;;6.60;;
26963;SDS011;14521;48.148;-1.656;2023-11-18T18:30:26;8.05;;;7.55;;
26963;SDS011;14521;48.148;-1.656;2023-11-18T18:33:49;6.45;;;5.95;;
26963;SDS011;14521;48.148;-1.656;2023-11-18T18:37:13;4.88;;;4.55;;
26963;SDS011;14521;48.148;-1.656;2023-11-18T18:40:35;6.63;;;6.13;;
26963;SDS011;14521;48.148;-1.656;2023-11-18T18:43:57;6.88;;;6.30;;
26963;SDS011;14521;48.148;-1.656;2023-11-18T18:47:20;5.43;;;5.13;;
26963;SDS011;14521;48.148;-1.656;2023-11-18T18:50:43;5.72;;;5.30;;
26963;SDS011;14521;48.148;-1.656;2023-11-18T18:54:05;6.38;;;4.68;;
26963;SDS011;14521;48.148;-1.656;2023-11-18T18:57:27;5.30;;;5.00;;
26963;SDS011;14521;48.148;-1.656;2023-11-18T19:00:50;5.22;;;5.03;;
26963;SDS011;14521;48.148;-1.656;2023-11-18T19:04:14;4.32;;;4.13;;
26963;SDS011;14521;48.148;-1.656;2023-11-18T19:07:36;5.13;;;4.18;;
26963;SDS011;14521;48.148;-1.656;2023-11-18T19:10:58;3.83;;;3.53;;
26963;SDS011;14521;48.148;-1.656;2023-11-18T19:14:20;3.97;;;3.78;;
26963;SDS011;14521;48.148;-1.656;2023-11-18T19:17:44;3.83;;;3.60;;
26963;SDS011;14521;48.148;-1.656;2023-11-18T19:21:07;4.15;;;3.85;;
26963;SDS011;14521;48.148;-1.656;2023-11-18T19:24:30;3.88;;;3.60;;
26963;SDS011;14521;48.148;-1.656;2023-11-18T19:27:52;4.22;;;3.92;;
26963;SDS011;14521;48.148;-1.656;2023-11-18T19:31:15;3.90;;;3.70;;
26963;SDS011;14521;48.148;-1.656;2023-11-18T19:34:37;3.25;;;3.05;;
26963;SDS011;14521;48.148;-1.656;2023-11-18T19:37:59;3.92;;;3.63;;
26963;SDS011;14521;48.148;-1.656;2023-11-18T19:41:24;3.33;;;3.10;;
26963;SDS011;14521;48.148;-1.656;2023-11-18T19:44:47;4.00;;;3.70;;
26963;SDS011;14521;48.148;-1.656;2023-11-18T19:48:10;3.88;;;3.50;;
26963;SDS011;14521;48.148;-1.656;2023-11-18T19:51:35;8.85;;;2.90;;
26963;SDS011;14521;48.148;-1.656;2023-11-18T19:54:57;6.65;;;3.10;;
26963;SDS011;14521;48.148;-1.656;2023-11-18T19:58:20;3.22;;;3.03;;
26963;SDS011;14521;48.148;-1.656;2023-11-18T20:01:44;3.50;;;3.20;;
26963;SDS011;14521;48.148;-1.656;2023-11-18T20:05:11;4.38;;;3.78;;
26963;SDS011;14521;48.148;-1.656;2023-11-18T20:08:34;4.45;;;4.05;;
26963;SDS011;14521;48.148;-1.656;2023-11-18T20:11:57;5.05;;;3.53;;
26963;SDS011;14521;48.148;-1.656;2023-11-18T20:15:22;4.43;;;4.03;;
26963;SDS011;14521;48.148;-1.656;2023-11-18T20:18:49;5.18;;;3.72;;
26963;SDS011;14521;48.148;-1.656;2023-11-18T20:22:11;4.88;;;3.53;;
26963;SDS011;14521;48.148;-1.656;2023-11-18T20:25:33;6.80;;;3.42;;
26963;SDS011;14521;48.148;-1.656;2023-11-18T20:28:56;4.20;;;3.80;;
26963;SDS011;14521;48.148;-1.656;2023-11-18T20:32:19;4.15;;;3.85;;
26963;SDS011;14521;48.148;-1.656;2023-11-18T20:35:41;4.18;;;3.35;;
26963;SDS011;14521;48.148;-1.656;2023-11-18T20:39:05;4.45;;;3.40;;
26963;SDS011;14521;48.148;-1.656;2023-11-18T20:42:28;3.55;;;3.25;;